Akron, Colorado
Current Conditions -  °F | °C
As of 4:53 PM on Sunday 25 Jan 2015 (Local Time) from KAKO Reporting Station
Clear Clear  
Wind Chill: 36°   Ceiling: Unl
Heat Index: 41°   Visibility: 10mi
Dew Point: 31°   Wind: 8mph
Humidity: 67%   Direction: 260°W
Pressure: 30.11"   Gusts: NA
Location:  40.16°N, 103.21°W
Report Text: KAKO 252353Z AUTO 26007KT 10SM CLR 05/M01 A3011 RMK AO2 SLP211 T00501006 10100 20050 53005
Loading
Personal Weather Stations






























Interactive Weather Map New forecast layout! Learn more

10-Day Weather Forecast

Advertisements
Track Severe Weather on mobile